CheckWX is a tool to help pilots better visualize weather data.  It is not intended as a substitute for an official pre-flight weather briefing.

20:26:15 UTC

KCZZ METAR
Campo Airport
Campo, California, USA
Current

34 mins ago

KCZZ 201952Z AUTO 23019KT 19/06 A2994 RMK AO1 SLP119 T01940061
Observed
Apr-20 @ 19:52 UTC
Wind
  • 230° at 19 KTS
Visibility
Temperature
19°C / 66°F
Dewpoint
C / 43°F
Humidity
43%
Altimeter
29.94" Hg
Pressure
1013.92 hPa
Previous

2 hours ago

KCZZ 201852Z AUTO 23018G21KT 19/06 A2995 RMK AO1 SLP122 T01940056
Observed
Apr-20 @ 18:52 UTC
Wind
  • 230° at 18 KTS
  • Gusting to 21 KTS
Visibility
Temperature
19°C / 66°F
Dewpoint
C / 43°F
Humidity
43%
Altimeter
29.95" Hg
Pressure
1014.22 hPa
Previous

3 hours ago

KCZZ 201752Z AUTO 23013KT 19/03 A2994 RMK AO1 SLP119 T01890033 10189 20089 53002
Observed
Apr-20 @ 17:52 UTC
Wind
  • 230° at 13 KTS
Visibility
Temperature
19°C / 66°F
Dewpoint
C / 37°F
Humidity
35%
Altimeter
29.94" Hg
Pressure
1013.92 hPa